createdAt,value
2019-03-16T00:01:36.644Z,96610.71
2019-03-16T00:04:08.343Z,96575.47
2019-03-16T00:06:40.331Z,96575.47
2019-03-16T00:09:12.112Z,96583.85
2019-03-16T00:11:45.213Z,96559.92
2019-03-16T00:14:16.863Z,96548.91
2019-03-16T00:16:48.741Z,96548.10
2019-03-16T00:19:20.649Z,96534.66
2019-03-16T00:21:52.533Z,96562.33
2019-03-16T00:24:25.571Z,96558.29
2019-03-16T00:26:57.540Z,96557.45
2019-03-16T00:29:29.138Z,96486.96
2019-03-16T00:32:13.001Z,96461.92
2019-03-16T00:34:34.974Z,96510.10
2019-03-16T00:37:06.862Z,96520.05
2019-03-16T00:39:38.703Z,96528.66
2019-03-16T00:42:11.625Z,96532.97
2019-03-16T00:44:43.529Z,96520.58
2019-03-16T00:47:15.403Z,96521.64
2019-03-16T00:49:47.126Z,96508.19
2019-03-16T00:52:19.088Z,96511.68
2019-03-16T00:54:50.754Z,96479.11
2019-03-16T00:57:22.620Z,96486.94
2019-03-16T00:59:54.695Z,96514.09
2019-03-16T01:02:27.611Z,96531.34
2019-03-16T01:05:00.647Z,96507.42
2019-03-16T01:07:32.430Z,96540.77
2019-03-16T01:10:04.668Z,96506.91
2019-03-16T01:12:37.341Z,96522.77
2019-03-16T01:15:09.425Z,96506.62
2019-03-16T01:17:41.288Z,96567.45
2019-03-16T01:20:14.303Z,96586.30
2019-03-16T01:22:47.440Z,96584.42
2019-03-16T01:25:19.133Z,96562.07
2019-03-16T01:27:50.869Z,96554.00
2019-03-16T01:30:22.739Z,96569.34
2019-03-16T01:32:54.490Z,96555.88
2019-03-16T01:35:26.345Z,96572.86
2019-03-16T01:37:58.229Z,96573.98
2019-03-16T01:40:30.757Z,96588.78
2019-03-16T01:43:02.519Z,96598.48
2019-03-16T01:45:34.287Z,96606.04
2019-03-16T01:48:06.217Z,96589.07
2019-03-16T01:50:38.134Z,96608.98
2019-03-16T01:53:10.184Z,96615.48
2019-03-16T01:55:42.283Z,96578.04
2019-03-16T01:58:14.014Z,96599.33
2019-03-16T02:00:45.824Z,96585.59
2019-03-16T02:03:18.802Z,96599.06
2019-03-16T02:05:51.869Z,96593.95
2019-03-16T02:08:24.240Z,96616.31
2019-03-16T02:10:56.204Z,96611.17
2019-03-16T02:13:28.065Z,96622.76
2019-03-16T02:16:10.273Z,96625.45
2019-03-16T02:18:34.164Z,96635.69
2019-03-16T02:21:06.157Z,96620.88
2019-03-16T02:23:38.064Z,96618.42
2019-03-16T02:26:10.042Z,96627.02
2019-03-16T02:28:41.786Z,96643.45
2019-03-16T02:31:13.666Z,96621.38
2019-03-16T02:33:45.511Z,96620.88
2019-03-16T02:36:17.321Z,96610.91
2019-03-16T02:38:50.812Z,96642.63
2019-03-16T02:41:23.525Z,96629.44
2019-03-16T02:43:55.668Z,96621.61
2019-03-16T02:46:27.562Z,96622.13
2019-03-16T02:49:00.243Z,96634.77
2019-03-16T02:51:32.469Z,96613.50
2019-03-16T02:54:04.522Z,96623.67
2019-03-16T02:56:36.349Z,96623.67
2019-03-16T02:59:08.133Z,96629.36
2019-03-16T03:01:40.404Z,96624.80
2019-03-16T03:04:12.216Z,96617.78
2019-03-16T03:06:45.812Z,96625.85
2019-03-16T03:09:19.442Z,96632.08
2019-03-16T03:11:51.183Z,96618.10
2019-03-16T03:14:23.172Z,96660.39
2019-03-16T03:16:55.208Z,96640.46
2019-03-16T03:19:27.029Z,96638.30
2019-03-16T03:21:58.719Z,96652.33
2019-03-16T03:24:30.632Z,96646.41
2019-03-16T03:27:03.446Z,96676.80
2019-03-16T03:29:37.797Z,96751.64
2019-03-16T03:32:09.692Z,96732.48
2019-03-16T03:34:41.284Z,96735.70
2019-03-16T03:37:13.073Z,96728.12
2019-03-16T03:39:44.938Z,96741.42
2019-03-16T03:42:17.694Z,96738.71
2019-03-16T03:44:49.401Z,96750.83
2019-03-16T03:47:21.494Z,96732.98
2019-03-16T03:49:53.209Z,96738.59
2019-03-16T03:52:25.274Z,96740.52
2019-03-16T03:54:57.309Z,96755.23
2019-03-16T03:57:31.773Z,96729.42
2019-03-16T04:00:03.456Z,96763.30
2019-03-16T04:02:35.862Z,96743.90
2019-03-16T04:05:07.930Z,96749.28
2019-03-16T04:07:39.982Z,96747.63
2019-03-16T04:10:12.662Z,96739.08
2019-03-16T04:12:44.353Z,96740.15
2019-03-16T04:15:15.990Z,96749.50
2019-03-16T04:17:48.865Z,96756.02
2019-03-16T04:20:21.637Z,96737.73
2019-03-16T04:22:53.345Z,96752.27
2019-03-16T04:25:25.266Z,96782.70
2019-03-16T04:27:57.052Z,96791.49
2019-03-16T04:30:28.729Z,96794.19
2019-03-16T04:33:00.546Z,96786.91
2019-03-16T04:35:32.436Z,96798.20
2019-03-16T04:38:04.391Z,96784.15
2019-03-16T04:40:36.283Z,96846.44
2019-03-16T04:43:08.473Z,96800.55
2019-03-16T04:45:40.383Z,96794.30
2019-03-16T04:48:12.048Z,96811.69
2019-03-16T04:50:43.819Z,96799.92
2019-03-16T04:53:15.521Z,96834.84
2019-03-16T04:55:47.160Z,96834.80
2019-03-16T04:58:19.018Z,96838.69
2019-03-16T05:00:50.862Z,96819.48
2019-03-16T05:03:22.514Z,96855.54
2019-03-16T05:05:54.553Z,96850.21
2019-03-16T05:08:26.453Z,96835.34
2019-03-16T05:10:58.408Z,96916.56
2019-03-16T05:13:31.117Z,96852.30
2019-03-16T05:16:02.903Z,96864.72
2019-03-16T05:18:35.324Z,96905.04
2019-03-16T05:21:07.233Z,96862.45
2019-03-16T05:23:39.249Z,96872.19
2019-03-16T05:26:10.960Z,96872.45
2019-03-16T05:28:43.039Z,96861.92
2019-03-16T05:31:15.750Z,96839.84
2019-03-16T05:33:47.984Z,96939.09
2019-03-16T05:36:20.332Z,96925.09
2019-03-16T05:38:52.097Z,96903.27
2019-03-16T05:41:24.103Z,96918.52
2019-03-16T05:43:56.067Z,96880.88
2019-03-16T05:46:27.883Z,96880.88
2019-03-16T05:48:59.668Z,96944.89
2019-03-16T05:51:31.383Z,96908.03
2019-03-16T05:54:03.207Z,96933.25
2019-03-16T05:56:34.832Z,96920.60
2019-03-16T05:59:06.743Z,96934.86
2019-03-16T06:01:39.754Z,96934.02
2019-03-16T06:04:11.420Z,96933.75
2019-03-16T06:06:43.330Z,96960.64
2019-03-16T06:09:15.308Z,97004.44
2019-03-16T06:11:46.894Z,96944.22
2019-03-16T06:14:18.657Z,96972.97
2019-03-16T06:16:50.814Z,96982.67
2019-03-16T06:19:24.916Z,96985.09
2019-03-16T06:21:56.718Z,97016.84
2019-03-16T06:24:28.671Z,97053.98
2019-03-16T06:27:00.868Z,97014.18
2019-03-16T06:29:32.888Z,96989.20
2019-03-16T06:32:04.950Z,97011.75
2019-03-16T06:34:37.022Z,96962.59
2019-03-16T06:37:09.052Z,97036.58
2019-03-16T06:39:41.123Z,97039.53
2019-03-16T06:42:13.028Z,97047.42
2019-03-16T06:44:44.795Z,97070.55
2019-03-16T06:47:16.579Z,97037.26
2019-03-16T06:49:50.302Z,97056.16
2019-03-16T06:52:22.114Z,97004.27
2019-03-16T06:54:54.370Z,97040.51
2019-03-16T06:57:28.515Z,97011.48
2019-03-16T07:00:01.302Z,97072.00
2019-03-16T07:02:33.160Z,97030.83
2019-03-16T07:05:06.242Z,97096.89
2019-03-16T07:07:38.077Z,97075.92
2019-03-16T07:10:10.184Z,97059.30
2019-03-16T07:12:42.017Z,97093.84
2019-03-16T07:15:14.339Z,97082.23
2019-03-16T07:17:46.231Z,97114.24
2019-03-16T07:20:18.228Z,97116.89
2019-03-16T07:22:50.041Z,97112.27
2019-03-16T07:25:22.078Z,97103.97
2019-03-16T07:27:53.872Z,97106.14
2019-03-16T07:30:25.652Z,97115.06
2019-03-16T07:32:57.402Z,97119.95
2019-03-16T07:35:29.150Z,97125.17
2019-03-16T07:38:00.793Z,97142.74
2019-03-16T07:40:32.421Z,97126.94
2019-03-16T07:43:04.057Z,97120.70
2019-03-16T07:45:35.927Z,97169.45
2019-03-16T07:48:07.695Z,97129.10
2019-03-16T07:50:39.711Z,97143.07
2019-03-16T07:53:11.529Z,97148.12
2019-03-16T07:55:44.848Z,97178.56
2019-03-16T07:58:16.538Z,97183.98
2019-03-16T08:00:48.538Z,97179.95
2019-03-16T08:03:20.382Z,97183.31
2019-03-16T08:05:52.522Z,97215.62
2019-03-16T08:08:24.394Z,97168.92
2019-03-16T08:10:56.831Z,97173.94
2019-03-16T08:13:28.746Z,97202.92
2019-03-16T08:16:00.744Z,97186.64
2019-03-16T08:18:32.551Z,97197.58
2019-03-16T08:21:04.533Z,97215.25
2019-03-16T08:23:36.729Z,97208.42
2019-03-16T08:26:09.733Z,97199.75
2019-03-16T08:28:42.765Z,97199.63
2019-03-16T08:31:14.794Z,97204.16
2019-03-16T08:33:46.530Z,97236.06
2019-03-16T08:36:18.134Z,97194.85
2019-03-16T08:38:49.962Z,97214.39
2019-03-16T08:41:21.629Z,97240.17
2019-03-16T08:43:53.605Z,97251.68
2019-03-16T08:46:25.533Z,97248.58
2019-03-16T08:48:57.542Z,97253.84
2019-03-16T08:51:29.506Z,97220.63
2019-03-16T08:54:01.362Z,97255.38
2019-03-16T08:56:33.216Z,97253.70
2019-03-16T08:59:05.213Z,97318.58
2019-03-16T09:01:36.933Z,97256.73
2019-03-16T09:04:08.726Z,97273.77
2019-03-16T09:06:40.443Z,97277.40
2019-03-16T09:09:12.243Z,97260.13
2019-03-16T09:11:44.125Z,97256.02
2019-03-16T09:14:15.924Z,97278.48
2019-03-16T09:16:47.588Z,97264.08
2019-03-16T09:19:21.107Z,97291.30
2019-03-16T09:21:52.925Z,97258.85
2019-03-16T09:24:25.218Z,97267.92
2019-03-16T09:26:56.998Z,97297.80
2019-03-16T09:29:29.044Z,97272.82
2019-03-16T09:32:00.693Z,97272.82
2019-03-16T09:34:32.534Z,97300.55
2019-03-16T09:37:06.097Z,97317.46
2019-03-16T09:39:37.706Z,97309.71
2019-03-16T09:42:11.085Z,97318.80
2019-03-16T09:44:42.872Z,97345.33
2019-03-16T09:47:14.605Z,97310.84
2019-03-16T09:49:47.441Z,97348.28
2019-03-16T09:52:19.326Z,97344.58
2019-03-16T09:54:50.910Z,97358.08
2019-03-16T09:57:22.823Z,97379.69
2019-03-16T09:59:54.715Z,97312.05
2019-03-16T10:02:26.524Z,97397.31
2019-03-16T10:04:58.233Z,97367.12
2019-03-16T10:07:30.034Z,97352.80
2019-03-16T10:10:01.931Z,97389.41
2019-03-16T10:12:35.437Z,97340.70
2019-03-16T10:15:07.723Z,97358.36
2019-03-16T10:17:40.551Z,97356.09
2019-03-16T10:20:12.970Z,97385.78
2019-03-16T10:22:44.632Z,97376.45
2019-03-16T10:25:16.479Z,97428.62
2019-03-16T10:27:48.349Z,97378.47
2019-03-16T10:30:20.149Z,97386.85
2019-03-16T10:32:52.334Z,97369.98
2019-03-16T10:35:24.622Z,97406.43
2019-03-16T10:37:56.897Z,97389.60
2019-03-16T10:40:28.675Z,97367.88
2019-03-16T10:43:00.626Z,97411.16
2019-03-16T10:45:32.875Z,97424.55
2019-03-16T10:48:05.159Z,97429.98
2019-03-16T10:50:37.572Z,97455.95
2019-03-16T10:53:09.405Z,97397.88
2019-03-16T10:55:41.362Z,97431.95
2019-03-16T10:58:13.181Z,97384.31
2019-03-16T11:00:45.666Z,97412.31
2019-03-16T11:03:17.578Z,97433.41
2019-03-16T11:05:49.349Z,97452.95
2019-03-16T11:08:21.257Z,97403.61
2019-03-16T11:10:53.019Z,97381.52
2019-03-16T11:13:24.974Z,97410.55
2019-03-16T11:15:56.692Z,97434.42
2019-03-16T11:18:28.460Z,97430.15
2019-03-16T11:21:00.150Z,97430.02
2019-03-16T11:23:33.097Z,97410.15
2019-03-16T11:26:04.896Z,97448.75
2019-03-16T11:28:36.710Z,97424.61
2019-03-16T11:31:08.774Z,97431.53
2019-03-16T11:33:40.546Z,97413.44
2019-03-16T11:36:12.302Z,97391.06
2019-03-16T11:38:44.402Z,97380.34
2019-03-16T11:41:16.333Z,97419.59
2019-03-16T11:43:48.071Z,97414.14
2019-03-16T11:46:19.982Z,97457.55
2019-03-16T11:48:51.760Z,97407.40
2019-03-16T11:51:24.145Z,97397.58
2019-03-16T11:53:55.969Z,97415.17
2019-03-16T11:56:27.760Z,97375.20
2019-03-16T11:58:59.510Z,97394.34
2019-03-16T12:01:31.208Z,97406.94
2019-03-16T12:04:03.152Z,97380.34
2019-03-16T12:06:34.932Z,97402.08
2019-03-16T12:09:08.209Z,97418.72
2019-03-16T12:11:39.980Z,97421.55
2019-03-16T12:14:12.030Z,97428.43
2019-03-16T12:16:43.620Z,97386.71
2019-03-16T12:19:15.550Z,97380.57
2019-03-16T12:21:47.290Z,97395.52
2019-03-16T12:24:19.403Z,97424.22
2019-03-16T12:26:53.168Z,97396.89
2019-03-16T12:29:34.087Z,97392.77
2019-03-16T12:31:59.573Z,97413.72
2019-03-16T12:34:31.289Z,97468.14
2019-03-16T12:37:03.068Z,97425.42
2019-03-16T12:39:35.776Z,97421.08
2019-03-16T12:42:07.749Z,97415.42
2019-03-16T12:44:40.491Z,97444.97
2019-03-16T12:47:12.240Z,97422.89
2019-03-16T12:49:44.394Z,97434.02
2019-03-16T12:52:16.329Z,97423.88
2019-03-16T12:54:48.315Z,97438.28
2019-03-16T12:57:20.524Z,97431.46
2019-03-16T12:59:53.794Z,97517.46
2019-03-16T13:02:26.200Z,97488.20
2019-03-16T13:04:58.289Z,97445.16
2019-03-16T13:07:30.291Z,97449.45
2019-03-16T13:10:02.252Z,97453.32
2019-03-16T13:12:33.971Z,97440.78
2019-03-16T13:15:06.286Z,97452.88
2019-03-16T13:17:38.517Z,97452.88
2019-03-16T13:20:11.067Z,97433.58
2019-03-16T13:22:43.104Z,97449.53
2019-03-16T13:25:14.990Z,97438.89
2019-03-16T13:27:46.949Z,97446.05
2019-03-16T13:30:19.175Z,97439.06
2019-03-16T13:32:50.893Z,97431.66
2019-03-16T13:35:22.848Z,97444.59
2019-03-16T13:37:56.191Z,97441.14
2019-03-16T13:40:28.198Z,97463.73
2019-03-16T13:43:00.068Z,97446.13
2019-03-16T13:45:31.803Z,97452.09
2019-03-16T13:48:03.492Z,97458.41
2019-03-16T13:50:35.212Z,97438.92
2019-03-16T13:53:07.448Z,97479.09
2019-03-16T13:55:39.238Z,97455.48
2019-03-16T13:58:11.178Z,97459.20
2019-03-16T14:00:43.363Z,97454.20
2019-03-16T14:03:15.694Z,97460.02
2019-03-16T14:05:47.719Z,97461.33
2019-03-16T14:08:19.930Z,97488.00
2019-03-16T14:10:52.225Z,97468.61
2019-03-16T14:13:24.426Z,97487.75
2019-03-16T14:15:57.398Z,97462.60
2019-03-16T14:18:29.320Z,97488.05
2019-03-16T14:21:01.592Z,97474.59
2019-03-16T14:23:33.695Z,97482.48
2019-03-16T14:26:06.412Z,97469.84
2019-03-16T14:28:38.092Z,97460.72
2019-03-16T14:31:09.884Z,97445.09
2019-03-16T14:33:42.084Z,97442.52
2019-03-16T14:36:14.051Z,97447.66
2019-03-16T14:38:46.285Z,97454.52
2019-03-16T14:41:17.956Z,97443.99
2019-03-16T14:43:49.751Z,97442.39
2019-03-16T14:46:21.523Z,97450.06
2019-03-16T14:48:53.297Z,97448.42
2019-03-16T14:51:25.175Z,97449.06
2019-03-16T14:53:57.183Z,97462.52
2019-03-16T14:56:29.482Z,97452.27
2019-03-16T14:59:01.384Z,97460.64
2019-03-16T15:01:33.514Z,97465.48
2019-03-16T15:04:06.295Z,97466.46
2019-03-16T15:06:39.213Z,97464.20
2019-03-16T15:09:13.113Z,97483.34
2019-03-16T15:11:45.393Z,97452.27
2019-03-16T15:14:21.835Z,97482.22
2019-03-16T15:16:52.269Z,97479.81
2019-03-16T15:19:25.457Z,97473.55
2019-03-16T15:21:57.216Z,97477.86
2019-03-16T15:24:29.779Z,97475.47
2019-03-16T15:27:01.465Z,97481.09
2019-03-16T15:29:33.273Z,97475.73
2019-03-16T15:32:05.026Z,97480.66
2019-03-16T15:34:36.954Z,97474.75
2019-03-16T15:37:08.904Z,97473.60
2019-03-16T15:39:40.828Z,97474.88
2019-03-16T15:42:14.343Z,97484.06
2019-03-16T15:44:48.225Z,97472.70
2019-03-16T15:47:20.039Z,97473.98
2019-03-16T15:49:51.800Z,97473.73
2019-03-16T15:52:23.866Z,97467.89
2019-03-16T15:54:55.736Z,97488.33
2019-03-16T15:57:27.806Z,97475.94
2019-03-16T15:59:59.432Z,97470.20
2019-03-16T16:02:31.713Z,97455.86
2019-03-16T16:05:03.860Z,97458.56
2019-03-16T16:07:35.846Z,97470.63
2019-03-16T16:10:08.140Z,97483.62
2019-03-16T16:12:40.313Z,97463.06
2019-03-16T16:15:13.069Z,97482.81
2019-03-16T16:17:45.023Z,97494.32
2019-03-16T16:20:16.811Z,97494.75
2019-03-16T16:22:48.978Z,97492.55
2019-03-16T16:25:20.747Z,97528.47
2019-03-16T16:27:52.817Z,97497.09
2019-03-16T16:30:24.401Z,97482.48
2019-03-16T16:32:56.356Z,97495.89
2019-03-16T16:35:28.145Z,97499.33
2019-03-16T16:38:00.123Z,97497.36
2019-03-16T16:40:31.992Z,97499.67
2019-03-16T16:43:04.020Z,97499.67
2019-03-16T16:45:35.913Z,97501.84
2019-03-16T16:48:07.917Z,97509.55
2019-03-16T16:50:39.934Z,97506.16
2019-03-16T16:53:11.920Z,97515.90
2019-03-16T16:55:43.652Z,97528.23
2019-03-16T16:58:15.691Z,97526.55
2019-03-16T17:00:49.269Z,97527.84
2019-03-16T17:03:21.262Z,97528.81
2019-03-16T17:05:53.379Z,97531.48
2019-03-16T17:08:25.237Z,97531.48
2019-03-16T17:10:57.329Z,97536.23
2019-03-16T17:13:29.283Z,97526.50
2019-03-16T17:16:01.262Z,97545.38
2019-03-16T17:18:33.194Z,97536.95
2019-03-16T17:21:06.030Z,97551.48
2019-03-16T17:23:40.264Z,97543.73
2019-03-16T17:26:13.582Z,97546.35
2019-03-16T17:28:47.591Z,97546.35
2019-03-16T17:31:21.642Z,97538.79
2019-03-16T17:33:55.164Z,97544.63
2019-03-16T17:36:27.269Z,97559.69
2019-03-16T17:39:00.007Z,97540.59
2019-03-16T17:41:32.181Z,97542.13
2019-03-16T17:44:04.114Z,97545.41
2019-03-16T17:46:35.819Z,97548.30
2019-03-16T17:49:07.703Z,97553.35
2019-03-16T17:51:39.606Z,97558.26
2019-03-16T17:54:11.349Z,97559.53
2019-03-16T17:56:42.939Z,97559.53
2019-03-16T17:59:14.936Z,97559.67
2019-03-16T18:01:54.592Z,97569.06
2019-03-16T18:04:20.562Z,97582.80
2019-03-16T18:06:52.302Z,97574.89
2019-03-16T18:09:24.127Z,97572.98
2019-03-16T18:11:55.898Z,97589.38
2019-03-16T18:14:27.878Z,97577.72
2019-03-16T18:16:59.714Z,97567.98
2019-03-16T18:19:31.515Z,97572.06
2019-03-16T18:22:03.716Z,97565.22
2019-03-16T18:24:35.688Z,97562.69
2019-03-16T18:27:07.495Z,97582.12
2019-03-16T18:29:41.077Z,97561.83
2019-03-16T18:32:13.120Z,97571.95
2019-03-16T18:34:45.318Z,97585.33
2019-03-16T18:37:16.934Z,97586.33
2019-03-16T18:39:48.570Z,97585.20
2019-03-16T18:42:21.175Z,97591.33
2019-03-16T18:44:52.984Z,97589.88
2019-03-16T18:47:24.989Z,97593.45
2019-03-16T18:49:56.801Z,97598.61
2019-03-16T18:52:28.517Z,97581.33
2019-03-16T18:55:00.406Z,97578.50
2019-03-16T18:57:32.372Z,97574.67
2019-03-16T19:00:04.993Z,97578.05
2019-03-16T19:02:38.355Z,97572.89
2019-03-16T19:05:10.199Z,97576.36
2019-03-16T19:07:42.097Z,97574.95
2019-03-16T19:10:13.779Z,97576.48
2019-03-16T19:12:46.134Z,97571.62
2019-03-16T19:15:18.445Z,97571.09
2019-03-16T19:17:58.588Z,97577.25
2019-03-16T19:20:23.905Z,97573.73
2019-03-16T19:22:56.040Z,97573.16
2019-03-16T19:25:29.047Z,97566.39
2019-03-16T19:28:00.977Z,97561.83
2019-03-16T19:30:32.994Z,97582.28
2019-03-16T19:33:04.904Z,97586.80
2019-03-16T19:35:36.787Z,97583.01
2019-03-16T19:38:08.618Z,97584.52
2019-03-16T19:40:40.487Z,97585.30
2019-03-16T19:43:12.330Z,97575.47
2019-03-16T19:45:44.249Z,97567.40
2019-03-16T19:48:16.013Z,97577.23
2019-03-16T19:50:47.724Z,97579.05
2019-03-16T19:53:19.447Z,97576.61
2019-03-16T19:55:51.250Z,97571.50
2019-03-16T19:58:23.005Z,97569.23
2019-03-16T20:00:55.188Z,97573.78
2019-03-16T20:03:26.917Z,97571.81
2019-03-16T20:05:58.732Z,97575.95
2019-03-16T20:08:30.523Z,97570.00
2019-03-16T20:11:06.900Z,97566.88
2019-03-16T20:13:36.619Z,97569.31
2019-03-16T20:16:08.759Z,97567.23
2019-03-16T20:18:40.382Z,97553.17
2019-03-16T20:21:13.746Z,97567.97
2019-03-16T20:23:45.673Z,97550.88
2019-03-16T20:26:17.701Z,97556.77
2019-03-16T20:28:49.342Z,97565.39
2019-03-16T20:31:21.153Z,97563.72
2019-03-16T20:33:53.237Z,97546.75
2019-03-16T20:36:25.180Z,97566.05
2019-03-16T20:38:56.820Z,97558.75
2019-03-16T20:41:35.947Z,97556.58
2019-03-16T20:44:03.664Z,97546.39
2019-03-16T20:46:35.565Z,97544.42
2019-03-16T20:49:07.546Z,97553.42
2019-03-16T20:51:39.259Z,97548.34
2019-03-16T20:54:14.508Z,97559.52
2019-03-16T20:56:46.363Z,97555.64
2019-03-16T20:59:19.245Z,97558.28
2019-03-16T21:01:50.927Z,97554.08
2019-03-16T21:04:23.010Z,97559.81
2019-03-16T21:06:55.117Z,97555.52
2019-03-16T21:09:26.763Z,97569.53
2019-03-16T21:11:59.602Z,97568.55
2019-03-16T21:14:31.861Z,97573.10
2019-03-16T21:17:03.662Z,97565.67
2019-03-16T21:19:35.625Z,97569.48
2019-03-16T21:22:07.435Z,97565.14
2019-03-16T21:24:39.298Z,97561.05
2019-03-16T21:27:11.207Z,97553.15
2019-03-16T21:29:42.979Z,97560.23
2019-03-16T21:32:14.756Z,97556.66
2019-03-16T21:34:47.040Z,97554.95
2019-03-16T21:37:18.744Z,97554.44
2019-03-16T21:39:50.690Z,97555.09
2019-03-16T21:42:22.496Z,97550.29
2019-03-16T21:44:54.336Z,97559.19
2019-03-16T21:47:26.199Z,97559.59
2019-03-16T21:49:58.134Z,97554.95
2019-03-16T21:52:29.978Z,97558.72
2019-03-16T21:55:01.896Z,97560.47
2019-03-16T21:57:33.980Z,97561.35
2019-03-16T22:00:07.618Z,97564.15
2019-03-16T22:02:39.469Z,97562.61
2019-03-16T22:05:11.482Z,97558.88
2019-03-16T22:07:43.271Z,97550.80
2019-03-16T22:10:15.757Z,97543.08
2019-03-16T22:12:48.625Z,97545.35
2019-03-16T22:15:21.849Z,97536.63
2019-03-16T22:17:54.006Z,97537.70
2019-03-16T22:20:25.872Z,97528.45
2019-03-16T22:22:58.026Z,97522.95
2019-03-16T22:25:29.973Z,97522.90
2019-03-16T22:28:02.421Z,97529.75
2019-03-16T22:30:34.150Z,97532.75
2019-03-16T22:33:06.799Z,97541.55
2019-03-16T22:35:38.629Z,97542.11
2019-03-16T22:38:11.053Z,97543.67
2019-03-16T22:40:42.790Z,97541.55
2019-03-16T22:43:15.738Z,97540.51
2019-03-16T22:45:47.485Z,97541.69
2019-03-16T22:48:20.797Z,97548.98
2019-03-16T22:50:52.598Z,97555.71
2019-03-16T22:53:24.447Z,97552.14
2019-03-16T22:55:57.531Z,97545.78
2019-03-16T22:58:29.348Z,97547.16
2019-03-16T23:01:02.268Z,97543.35
2019-03-16T23:03:34.532Z,97551.10
2019-03-16T23:06:06.607Z,97546.04
2019-03-16T23:08:39.163Z,97546.13
2019-03-16T23:11:11.353Z,97550.38
2019-03-16T23:13:43.608Z,97543.91
2019-03-16T23:16:15.598Z,97539.09
2019-03-16T23:18:47.534Z,97521.19
2019-03-16T23:21:19.597Z,97520.78
2019-03-16T23:23:51.329Z,97517.00
2019-03-16T23:26:23.373Z,97510.70
2019-03-16T23:28:56.417Z,97503.66
2019-03-16T23:31:28.520Z,97503.72
2019-03-16T23:34:00.549Z,97500.92
2019-03-16T23:36:32.392Z,97499.28
2019-03-16T23:39:05.041Z,97495.64
2019-03-16T23:41:38.261Z,97491.52
2019-03-16T23:44:10.067Z,97495.77
2019-03-16T23:46:41.665Z,97490.17
2019-03-16T23:49:13.652Z,97487.58
2019-03-16T23:51:46.686Z,97496.05
2019-03-16T23:54:18.613Z,97493.09
2019-03-16T23:56:50.376Z,97498.48
2019-03-16T23:59:22.148Z,97497.81
